logo
Search for airport 
image banner adimage banner adimage banner ad
image banner ad

VRMR - Fuvahmulah Island/Airport

Located in Fuvahmulah, Maldives

ICAO - , IATA - FVM

Data provided by Airmate  

General information

Coordinates: S0°18'34" E73°25'58"
Elevation is 6 feet MSL.
 
View others Airports in Gnaviyani

Operational data

Special qualification required
Current time UTC:
Current local time:
Weather at : VRMG - Gan Island/International ( 53 km )
METAR: VRMG 050300Z 14011KT 7000 FEW018TCU BKN270 30/26 Q1012 NOSIG
TAF: TAF VRMG 042300Z 0500/0606 13012KT 9999 FEW018TCU TEMPO 0500/0506 FEW018CB
View NOTAMs / SUP AIP / TFR affecting this airport [VIEW]
Communications frequencies: [VIEW]

Runways:

RWY identifierQFULength (ft)Width (ft)SurfaceLDA (ft)
11106°360998UNK
29286°360998UNK

Airport contact information

Address: Fuvahmulah Maldives

Satellite view of VRMR